sensor_id;sensor_type;location;lat;lon;timestamp;P1;durP1;ratioP1;P2;durP2;ratioP2
59907;SDS011;61804;54.926;73.496;2024-01-15T00:01:01;3.00;;;2.72;;
59907;SDS011;61804;54.926;73.496;2024-01-15T00:03:34;7.43;;;3.63;;
59907;SDS011;61804;54.926;73.496;2024-01-15T00:06:02;9.95;;;5.97;;
59907;SDS011;61804;54.926;73.496;2024-01-15T00:08:30;16.92;;;5.50;;
59907;SDS011;61804;54.926;73.496;2024-01-15T00:10:58;13.60;;;7.45;;
59907;SDS011;61804;54.926;73.496;2024-01-15T00:13:25;9.02;;;5.05;;
59907;SDS011;61804;54.926;73.496;2024-01-15T00:15:53;13.73;;;7.25;;
59907;SDS011;61804;54.926;73.496;2024-01-15T00:18:21;8.25;;;6.70;;
59907;SDS011;61804;54.926;73.496;2024-01-15T00:20:48;10.40;;;5.82;;
59907;SDS011;61804;54.926;73.496;2024-01-15T00:23:17;11.23;;;5.93;;
59907;SDS011;61804;54.926;73.496;2024-01-15T00:25:45;15.73;;;5.80;;
59907;SDS011;61804;54.926;73.496;2024-01-15T00:28:12;4.80;;;4.40;;
59907;SDS011;61804;54.926;73.496;2024-01-15T00:30:40;13.05;;;8.10;;
59907;SDS011;61804;54.926;73.496;2024-01-15T00:33:07;7.00;;;3.55;;
59907;SDS011;61804;54.926;73.496;2024-01-15T00:35:36;8.95;;;5.95;;
59907;SDS011;61804;54.926;73.496;2024-01-15T00:38:04;8.60;;;5.32;;
59907;SDS011;61804;54.926;73.496;2024-01-15T00:40:32;10.85;;;5.78;;
59907;SDS011;61804;54.926;73.496;2024-01-15T00:42:59;6.72;;;3.78;;
59907;SDS011;61804;54.926;73.496;2024-01-15T00:45:27;5.40;;;2.30;;
59907;SDS011;61804;54.926;73.496;2024-01-15T00:47:55;4.60;;;3.20;;
59907;SDS011;61804;54.926;73.496;2024-01-15T00:50:23;4.30;;;2.40;;
59907;SDS011;61804;54.926;73.496;2024-01-15T00:52:51;4.22;;;2.55;;
59907;SDS011;61804;54.926;73.496;2024-01-15T00:55:19;6.85;;;3.95;;
59907;SDS011;61804;54.926;73.496;2024-01-15T00:57:47;3.22;;;1.85;;
59907;SDS011;61804;54.926;73.496;2024-01-15T01:00:14;5.53;;;2.40;;
59907;SDS011;61804;54.926;73.496;2024-01-15T01:02:43;4.65;;;2.45;;
59907;SDS011;61804;54.926;73.496;2024-01-15T01:05:11;3.63;;;2.35;;
59907;SDS011;61804;54.926;73.496;2024-01-15T01:07:39;8.63;;;2.55;;
59907;SDS011;61804;54.926;73.496;2024-01-15T01:10:07;7.80;;;3.28;;
59907;SDS011;61804;54.926;73.496;2024-01-15T01:12:35;6.75;;;2.78;;
59907;SDS011;61804;54.926;73.496;2024-01-15T01:15:03;2.97;;;2.67;;
59907;SDS011;61804;54.926;73.496;2024-01-15T01:17:34;3.45;;;2.97;;
59907;SDS011;61804;54.926;73.496;2024-01-15T01:20:01;6.90;;;3.00;;
59907;SDS011;61804;54.926;73.496;2024-01-15T01:22:31;4.90;;;2.55;;
59907;SDS011;61804;54.926;73.496;2024-01-15T01:24:59;7.07;;;3.35;;
59907;SDS011;61804;54.926;73.496;2024-01-15T01:27:28;2.20;;;2.00;;
59907;SDS011;61804;54.926;73.496;2024-01-15T01:29:55;2.22;;;2.13;;
59907;SDS011;61804;54.926;73.496;2024-01-15T01:32:22;4.18;;;2.13;;
59907;SDS011;61804;54.926;73.496;2024-01-15T01:34:50;5.57;;;2.00;;
59907;SDS011;61804;54.926;73.496;2024-01-15T01:37:18;3.40;;;2.67;;
59907;SDS011;61804;54.926;73.496;2024-01-15T01:39:45;5.07;;;1.63;;
59907;SDS011;61804;54.926;73.496;2024-01-15T01:42:13;5.50;;;3.60;;
59907;SDS011;61804;54.926;73.496;2024-01-15T01:44:40;5.75;;;4.72;;
59907;SDS011;61804;54.926;73.496;2024-01-15T01:47:07;9.82;;;4.18;;
59907;SDS011;61804;54.926;73.496;2024-01-15T01:49:35;1.95;;;1.63;;
59907;SDS011;61804;54.926;73.496;2024-01-15T01:52:05;3.95;;;3.38;;
59907;SDS011;61804;54.926;73.496;2024-01-15T01:54:39;5.80;;;3.00;;
59907;SDS011;61804;54.926;73.496;2024-01-15T01:57:08;5.10;;;3.35;;
59907;SDS011;61804;54.926;73.496;2024-01-15T01:59:36;5.57;;;5.07;;
59907;SDS011;61804;54.926;73.496;2024-01-15T02:02:04;7.05;;;4.40;;
59907;SDS011;61804;54.926;73.496;2024-01-15T02:04:32;3.90;;;2.92;;
59907;SDS011;61804;54.926;73.496;2024-01-15T02:07:00;7.18;;;4.93;;
59907;SDS011;61804;54.926;73.496;2024-01-15T02:09:28;21.00;;;6.20;;
59907;SDS011;61804;54.926;73.496;2024-01-15T02:11:55;11.05;;;4.55;;
59907;SDS011;61804;54.926;73.496;2024-01-15T02:14:23;16.73;;;8.82;;
59907;SDS011;61804;54.926;73.496;2024-01-15T02:16:52;30.10;;;11.57;;
59907;SDS011;61804;54.926;73.496;2024-01-15T02:19:20;15.98;;;10.48;;
59907;SDS011;61804;54.926;73.496;2024-01-15T02:21:47;36.83;;;20.30;;
59907;SDS011;61804;54.926;73.496;2024-01-15T02:24:15;33.60;;;21.42;;
59907;SDS011;61804;54.926;73.496;2024-01-15T02:26:44;7.50;;;4.90;;
59907;SDS011;61804;54.926;73.496;2024-01-15T02:29:12;17.13;;;9.10;;
59907;SDS011;61804;54.926;73.496;2024-01-15T02:31:39;15.60;;;8.18;;
59907;SDS011;61804;54.926;73.496;2024-01-15T02:34:06;15.00;;;8.00;;
59907;SDS011;61804;54.926;73.496;2024-01-15T02:36:34;7.53;;;4.72;;
59907;SDS011;61804;54.926;73.496;2024-01-15T02:39:01;6.35;;;3.45;;
59907;SDS011;61804;54.926;73.496;2024-01-15T02:41:29;8.25;;;4.80;;
59907;SDS011;61804;54.926;73.496;2024-01-15T02:43:57;4.43;;;2.28;;
59907;SDS011;61804;54.926;73.496;2024-01-15T02:46:25;5.35;;;3.20;;
59907;SDS011;61804;54.926;73.496;2024-01-15T02:48:53;8.70;;;3.97;;
59907;SDS011;61804;54.926;73.496;2024-01-15T02:51:20;7.05;;;2.95;;
59907;SDS011;61804;54.926;73.496;2024-01-15T02:53:48;7.97;;;3.28;;
59907;SDS011;61804;54.926;73.496;2024-01-15T02:56:16;5.65;;;1.88;;
59907;SDS011;61804;54.926;73.496;2024-01-15T02:58:44;3.10;;;1.55;;
59907;SDS011;61804;54.926;73.496;2024-01-15T03:01:13;6.75;;;3.95;;
59907;SDS011;61804;54.926;73.496;2024-01-15T03:03:41;3.35;;;2.50;;
59907;SDS011;61804;54.926;73.496;2024-01-15T03:06:08;3.47;;;2.55;;
59907;SDS011;61804;54.926;73.496;2024-01-15T03:08:36;4.15;;;2.28;;
59907;SDS011;61804;54.926;73.496;2024-01-15T03:11:04;7.32;;;4.07;;
59907;SDS011;61804;54.926;73.496;2024-01-15T03:13:36;5.30;;;3.83;;
59907;SDS011;61804;54.926;73.496;2024-01-15T03:16:04;8.63;;;2.90;;
59907;SDS011;61804;54.926;73.496;2024-01-15T03:18:43;1.98;;;1.45;;
59907;SDS011;61804;54.926;73.496;2024-01-15T03:21:10;5.55;;;2.63;;
59907;SDS011;61804;54.926;73.496;2024-01-15T03:23:37;3.25;;;2.75;;
59907;SDS011;61804;54.926;73.496;2024-01-15T03:26:06;9.75;;;3.25;;
59907;SDS011;61804;54.926;73.496;2024-01-15T03:28:33;5.53;;;4.13;;
59907;SDS011;61804;54.926;73.496;2024-01-15T03:31:00;7.45;;;2.08;;
59907;SDS011;61804;54.926;73.496;2024-01-15T03:33:28;4.88;;;4.20;;
59907;SDS011;61804;54.926;73.496;2024-01-15T03:35:55;6.47;;;5.15;;
59907;SDS011;61804;54.926;73.496;2024-01-15T03:38:23;9.80;;;6.90;;
59907;SDS011;61804;54.926;73.496;2024-01-15T03:40:51;5.95;;;4.75;;
59907;SDS011;61804;54.926;73.496;2024-01-15T03:43:18;8.38;;;5.88;;
59907;SDS011;61804;54.926;73.496;2024-01-15T03:45:47;9.05;;;8.15;;
59907;SDS011;61804;54.926;73.496;2024-01-15T03:48:15;15.77;;;10.77;;
59907;SDS011;61804;54.926;73.496;2024-01-15T03:50:43;13.15;;;9.35;;
59907;SDS011;61804;54.926;73.496;2024-01-15T03:53:16;8.35;;;3.85;;
59907;SDS011;61804;54.926;73.496;2024-01-15T03:55:45;3.95;;;3.13;;
59907;SDS011;61804;54.926;73.496;2024-01-15T03:58:12;2.58;;;2.25;;
59907;SDS011;61804;54.926;73.496;2024-01-15T04:00:42;3.55;;;2.38;;
59907;SDS011;61804;54.926;73.496;2024-01-15T04:03:11;5.53;;;3.30;;
59907;SDS011;61804;54.926;73.496;2024-01-15T04:05:38;5.32;;;2.10;;
59907;SDS011;61804;54.926;73.496;2024-01-15T04:08:06;4.38;;;2.47;;
59907;SDS011;61804;54.926;73.496;2024-01-15T04:10:34;4.18;;;2.30;;
59907;SDS011;61804;54.926;73.496;2024-01-15T04:13:12;6.43;;;3.95;;
59907;SDS011;61804;54.926;73.496;2024-01-15T04:15:39;5.25;;;3.80;;
59907;SDS011;61804;54.926;73.496;2024-01-15T04:18:08;4.57;;;2.42;;
59907;SDS011;61804;54.926;73.496;2024-01-15T04:20:40;3.70;;;2.42;;
59907;SDS011;61804;54.926;73.496;2024-01-15T04:23:08;5.50;;;2.70;;
59907;SDS011;61804;54.926;73.496;2024-01-15T04:25:36;5.05;;;3.72;;
59907;SDS011;61804;54.926;73.496;2024-01-15T04:28:04;5.78;;;3.40;;
59907;SDS011;61804;54.926;73.496;2024-01-15T04:30:32;9.90;;;4.28;;
59907;SDS011;61804;54.926;73.496;2024-01-15T04:33:00;9.27;;;5.25;;
59907;SDS011;61804;54.926;73.496;2024-01-15T04:35:29;11.02;;;4.25;;
59907;SDS011;61804;54.926;73.496;2024-01-15T04:37:58;3.95;;;3.17;;
59907;SDS011;61804;54.926;73.496;2024-01-15T04:40:25;9.60;;;7.82;;
59907;SDS011;61804;54.926;73.496;2024-01-15T04:42:54;8.57;;;5.50;;
59907;SDS011;61804;54.926;73.496;2024-01-15T04:45:22;11.57;;;8.25;;
59907;SDS011;61804;54.926;73.496;2024-01-15T04:47:59;19.90;;;10.23;;
59907;SDS011;61804;54.926;73.496;2024-01-15T04:50:27;6.05;;;4.25;;
59907;SDS011;61804;54.926;73.496;2024-01-15T04:52:54;3.22;;;2.53;;
59907;SDS011;61804;54.926;73.496;2024-01-15T04:55:23;7.68;;;4.07;;
59907;SDS011;61804;54.926;73.496;2024-01-15T04:57:51;5.07;;;3.53;;
59907;SDS011;61804;54.926;73.496;2024-01-15T05:00:18;6.03;;;4.88;;
59907;SDS011;61804;54.926;73.496;2024-01-15T05:02:46;12.60;;;7.55;;
59907;SDS011;61804;54.926;73.496;2024-01-15T05:05:15;10.35;;;5.53;;
59907;SDS011;61804;54.926;73.496;2024-01-15T05:07:49;6.35;;;4.47;;
59907;SDS011;61804;54.926;73.496;2024-01-15T05:10:16;6.82;;;4.78;;
59907;SDS011;61804;54.926;73.496;2024-01-15T05:12:46;5.10;;;4.00;;
59907;SDS011;61804;54.926;73.496;2024-01-15T05:15:13;6.00;;;3.35;;
59907;SDS011;61804;54.926;73.496;2024-01-15T05:17:41;3.72;;;3.08;;
59907;SDS011;61804;54.926;73.496;2024-01-15T05:20:10;4.00;;;3.13;;
59907;SDS011;61804;54.926;73.496;2024-01-15T05:22:38;5.72;;;5.07;;
59907;SDS011;61804;54.926;73.496;2024-01-15T05:25:08;6.18;;;4.30;;
59907;SDS011;61804;54.926;73.496;2024-01-15T05:27:36;7.85;;;3.92;;
59907;SDS011;61804;54.926;73.496;2024-01-15T05:30:04;4.30;;;3.03;;
59907;SDS011;61804;54.926;73.496;2024-01-15T05:32:38;3.25;;;2.88;;
59907;SDS011;61804;54.926;73.496;2024-01-15T05:35:06;7.03;;;3.80;;
59907;SDS011;61804;54.926;73.496;2024-01-15T05:37:34;14.63;;;4.38;;
59907;SDS011;61804;54.926;73.496;2024-01-15T05:40:01;4.93;;;3.97;;
59907;SDS011;61804;54.926;73.496;2024-01-15T05:42:31;6.28;;;4.75;;
59907;SDS011;61804;54.926;73.496;2024-01-15T05:44:58;4.35;;;3.60;;
59907;SDS011;61804;54.926;73.496;2024-01-15T05:47:26;9.63;;;6.53;;
59907;SDS011;61804;54.926;73.496;2024-01-15T05:49:58;9.40;;;5.85;;
59907;SDS011;61804;54.926;73.496;2024-01-15T05:52:25;16.90;;;8.60;;
59907;SDS011;61804;54.926;73.496;2024-01-15T05:54:53;11.20;;;5.30;;
59907;SDS011;61804;54.926;73.496;2024-01-15T05:57:21;8.50;;;5.20;;
59907;SDS011;61804;54.926;73.496;2024-01-15T05:59:49;8.60;;;5.35;;
59907;SDS011;61804;54.926;73.496;2024-01-15T06:02:31;7.43;;;6.25;;
59907;SDS011;61804;54.926;73.496;2024-01-15T06:04:59;8.68;;;5.95;;
59907;SDS011;61804;54.926;73.496;2024-01-15T06:07:27;24.90;;;14.77;;
59907;SDS011;61804;54.926;73.496;2024-01-15T06:09:54;11.07;;;6.03;;
59907;SDS011;61804;54.926;73.496;2024-01-15T06:12:23;4.88;;;4.45;;
59907;SDS011;61804;54.926;73.496;2024-01-15T06:14:52;13.27;;;5.45;;
59907;SDS011;61804;54.926;73.496;2024-01-15T06:17:20;5.80;;;5.15;;
59907;SDS011;61804;54.926;73.496;2024-01-15T06:19:48;7.82;;;3.72;;
59907;SDS011;61804;54.926;73.496;2024-01-15T06:22:16;13.55;;;8.82;;
59907;SDS011;61804;54.926;73.496;2024-01-15T06:24:45;4.30;;;3.92;;
59907;SDS011;61804;54.926;73.496;2024-01-15T06:27:13;9.30;;;7.35;;
59907;SDS011;61804;54.926;73.496;2024-01-15T06:29:47;4.18;;;3.20;;
59907;SDS011;61804;54.926;73.496;2024-01-15T06:32:14;6.32;;;5.10;;
59907;SDS011;61804;54.926;73.496;2024-01-15T06:34:42;13.32;;;8.30;;
59907;SDS011;61804;54.926;73.496;2024-01-15T06:37:14;12.85;;;10.18;;
59907;SDS011;61804;54.926;73.496;2024-01-15T06:39:42;11.52;;;8.65;;
59907;SDS011;61804;54.926;73.496;2024-01-15T06:42:10;18.70;;;13.85;;
59907;SDS011;61804;54.926;73.496;2024-01-15T06:44:37;10.32;;;6.85;;
59907;SDS011;61804;54.926;73.496;2024-01-15T06:47:05;16.00;;;10.25;;
59907;SDS011;61804;54.926;73.496;2024-01-15T06:49:33;9.10;;;5.65;;
59907;SDS011;61804;54.926;73.496;2024-01-15T06:52:00;8.02;;;6.15;;
59907;SDS011;61804;54.926;73.496;2024-01-15T06:54:27;10.57;;;8.13;;
59907;SDS011;61804;54.926;73.496;2024-01-15T06:56:55;11.32;;;7.90;;
59907;SDS011;61804;54.926;73.496;2024-01-15T06:59:23;7.28;;;5.45;;
59907;SDS011;61804;54.926;73.496;2024-01-15T07:01:55;9.60;;;6.80;;
59907;SDS011;61804;54.926;73.496;2024-01-15T07:04:23;11.45;;;9.07;;
59907;SDS011;61804;54.926;73.496;2024-01-15T07:06:51;8.77;;;6.38;;
59907;SDS011;61804;54.926;73.496;2024-01-15T07:09:19;7.60;;;5.20;;
59907;SDS011;61804;54.926;73.496;2024-01-15T07:11:47;11.27;;;6.25;;
59907;SDS011;61804;54.926;73.496;2024-01-15T07:14:20;8.43;;;5.90;;
59907;SDS011;61804;54.926;73.496;2024-01-15T07:16:47;11.23;;;6.13;;
59907;SDS011;61804;54.926;73.496;2024-01-15T07:19:15;8.65;;;6.35;;
59907;SDS011;61804;54.926;73.496;2024-01-15T07:21:43;9.45;;;7.28;;
59907;SDS011;61804;54.926;73.496;2024-01-15T07:24:12;9.30;;;5.60;;
59907;SDS011;61804;54.926;73.496;2024-01-15T07:26:40;5.93;;;3.63;;
59907;SDS011;61804;54.926;73.496;2024-01-15T07:29:08;3.30;;;3.00;;
59907;SDS011;61804;54.926;73.496;2024-01-15T07:31:36;4.82;;;4.20;;
59907;SDS011;61804;54.926;73.496;2024-01-15T07:34:03;6.28;;;4.45;;
59907;SDS011;61804;54.926;73.496;2024-01-15T07:36:31;5.45;;;4.57;;
59907;SDS011;61804;54.926;73.496;2024-01-15T07:38:59;9.02;;;5.82;;
59907;SDS011;61804;54.926;73.496;2024-01-15T07:41:27;9.35;;;6.90;;
59907;SDS011;61804;54.926;73.496;2024-01-15T07:43:55;22.45;;;16.85;;
59907;SDS011;61804;54.926;73.496;2024-01-15T07:46:22;18.85;;;14.77;;
59907;SDS011;61804;54.926;73.496;2024-01-15T07:48:49;18.83;;;11.90;;
59907;SDS011;61804;54.926;73.496;2024-01-15T07:51:24;7.80;;;4.63;;
59907;SDS011;61804;54.926;73.496;2024-01-15T07:53:55;7.20;;;6.50;;
59907;SDS011;61804;54.926;73.496;2024-01-15T07:56:23;5.78;;;4.38;;
59907;SDS011;61804;54.926;73.496;2024-01-15T07:58:50;10.50;;;6.93;;
59907;SDS011;61804;54.926;73.496;2024-01-15T08:01:19;7.68;;;5.22;;
59907;SDS011;61804;54.926;73.496;2024-01-15T08:03:46;17.10;;;12.13;;
59907;SDS011;61804;54.926;73.496;2024-01-15T08:06:16;17.35;;;13.23;;
59907;SDS011;61804;54.926;73.496;2024-01-15T08:08:45;48.15;;;35.13;;
59907;SDS011;61804;54.926;73.496;2024-01-15T08:11:13;34.75;;;27.70;;
59907;SDS011;61804;54.926;73.496;2024-01-15T08:13:42;37.00;;;27.92;;
59907;SDS011;61804;54.926;73.496;2024-01-15T08:16:10;25.52;;;19.40;;
59907;SDS011;61804;54.926;73.496;2024-01-15T08:18:38;12.13;;;9.18;;
59907;SDS011;61804;54.926;73.496;2024-01-15T08:21:06;7.00;;;6.40;;
59907;SDS011;61804;54.926;73.496;2024-01-15T08:23:34;8.75;;;5.53;;
59907;SDS011;61804;54.926;73.496;2024-01-15T08:26:02;5.25;;;4.72;;
59907;SDS011;61804;54.926;73.496;2024-01-15T08:28:30;5.85;;;5.15;;
59907;SDS011;61804;54.926;73.496;2024-01-15T08:30:59;10.02;;;6.85;;
59907;SDS011;61804;54.926;73.496;2024-01-15T08:33:27;7.20;;;3.63;;
59907;SDS011;61804;54.926;73.496;2024-01-15T08:35:55;6.90;;;5.05;;
59907;SDS011;61804;54.926;73.496;2024-01-15T08:38:23;9.88;;;8.88;;
59907;SDS011;61804;54.926;73.496;2024-01-15T08:40:52;8.55;;;7.65;;
59907;SDS011;61804;54.926;73.496;2024-01-15T08:43:21;17.33;;;14.32;;
59907;SDS011;61804;54.926;73.496;2024-01-15T08:45:48;10.68;;;6.10;;
59907;SDS011;61804;54.926;73.496;2024-01-15T08:48:16;6.80;;;6.13;;
59907;SDS011;61804;54.926;73.496;2024-01-15T08:50:44;12.73;;;7.82;;
59907;SDS011;61804;54.926;73.496;2024-01-15T08:53:15;28.05;;;20.58;;
59907;SDS011;61804;54.926;73.496;2024-01-15T08:55:49;8.07;;;6.03;;
59907;SDS011;61804;54.926;73.496;2024-01-15T08:58:17;6.40;;;4.82;;
59907;SDS011;61804;54.926;73.496;2024-01-15T09:00:44;5.32;;;3.85;;
59907;SDS011;61804;54.926;73.496;2024-01-15T09:03:12;10.20;;;7.43;;
59907;SDS011;61804;54.926;73.496;2024-01-15T09:05:39;7.03;;;5.75;;
59907;SDS011;61804;54.926;73.496;2024-01-15T09:08:07;9.05;;;5.65;;
59907;SDS011;61804;54.926;73.496;2024-01-15T09:10:36;5.40;;;4.85;;
59907;SDS011;61804;54.926;73.496;2024-01-15T09:13:03;5.70;;;4.43;;
59907;SDS011;61804;54.926;73.496;2024-01-15T09:15:31;6.15;;;3.95;;
59907;SDS011;61804;54.926;73.496;2024-01-15T09:17:59;4.40;;;3.97;;
59907;SDS011;61804;54.926;73.496;2024-01-15T09:20:28;5.15;;;4.43;;
59907;SDS011;61804;54.926;73.496;2024-01-15T09:22:56;7.88;;;4.15;;
59907;SDS011;61804;54.926;73.496;2024-01-15T09:25:25;8.05;;;5.68;;
59907;SDS011;61804;54.926;73.496;2024-01-15T09:27:52;5.07;;;4.60;;
59907;SDS011;61804;54.926;73.496;2024-01-15T09:30:20;8.15;;;5.93;;
59907;SDS011;61804;54.926;73.496;2024-01-15T09:32:48;12.60;;;9.43;;
59907;SDS011;61804;54.926;73.496;2024-01-15T09:35:16;6.40;;;4.57;;
59907;SDS011;61804;54.926;73.496;2024-01-15T09:37:44;9.65;;;5.35;;
59907;SDS011;61804;54.926;73.496;2024-01-15T09:40:13;11.65;;;7.97;;
59907;SDS011;61804;54.926;73.496;2024-01-15T09:42:44;5.07;;;3.95;;
59907;SDS011;61804;54.926;73.496;2024-01-15T09:45:15;6.82;;;3.65;;
59907;SDS011;61804;54.926;73.496;2024-01-15T09:47:42;4.40;;;4.00;;
59907;SDS011;61804;54.926;73.496;2024-01-15T09:50:10;4.72;;;3.63;;
59907;SDS011;61804;54.926;73.496;2024-01-15T09:52:38;4.22;;;3.72;;
59907;SDS011;61804;54.926;73.496;2024-01-15T09:55:07;3.72;;;3.10;;
59907;SDS011;61804;54.926;73.496;2024-01-15T09:57:37;7.28;;;3.30;;
59907;SDS011;61804;54.926;73.496;2024-01-15T10:00:05;7.80;;;3.95;;
59907;SDS011;61804;54.926;73.496;2024-01-15T10:02:37;5.13;;;4.20;;
59907;SDS011;61804;54.926;73.496;2024-01-15T10:05:05;4.07;;;3.35;;
59907;SDS011;61804;54.926;73.496;2024-01-15T10:07:34;10.32;;;3.80;;
59907;SDS011;61804;54.926;73.496;2024-01-15T10:10:03;2.50;;;2.22;;
59907;SDS011;61804;54.926;73.496;2024-01-15T10:12:32;4.65;;;2.17;;
59907;SDS011;61804;54.926;73.496;2024-01-15T10:15:00;4.63;;;3.10;;
59907;SDS011;61804;54.926;73.496;2024-01-15T10:17:32;6.50;;;4.13;;
59907;SDS011;61804;54.926;73.496;2024-01-15T10:19:59;6.53;;;4.55;;
59907;SDS011;61804;54.926;73.496;2024-01-15T10:22:27;12.15;;;4.07;;
59907;SDS011;61804;54.926;73.496;2024-01-15T10:24:55;5.40;;;4.20;;
59907;SDS011;61804;54.926;73.496;2024-01-15T10:27:23;9.65;;;5.43;;
59907;SDS011;61804;54.926;73.496;2024-01-15T10:29:51;4.45;;;2.70;;
59907;SDS011;61804;54.926;73.496;2024-01-15T10:32:20;5.38;;;3.50;;
59907;SDS011;61804;54.926;73.496;2024-01-15T10:34:52;5.95;;;4.15;;
59907;SDS011;61804;54.926;73.496;2024-01-15T10:37:20;5.68;;;3.80;;
59907;SDS011;61804;54.926;73.496;2024-01-15T10:39:47;7.78;;;5.22;;
59907;SDS011;61804;54.926;73.496;2024-01-15T10:42:14;6.10;;;3.70;;
59907;SDS011;61804;54.926;73.496;2024-01-15T10:44:42;6.47;;;2.63;;
59907;SDS011;61804;54.926;73.496;2024-01-15T10:47:11;6.35;;;3.45;;
59907;SDS011;61804;54.926;73.496;2024-01-15T10:49:38;11.13;;;5.53;;
59907;SDS011;61804;54.926;73.496;2024-01-15T10:52:07;5.40;;;3.15;;
59907;SDS011;61804;54.926;73.496;2024-01-15T10:54:35;7.65;;;4.88;;
59907;SDS011;61804;54.926;73.496;2024-01-15T10:57:05;13.52;;;5.68;;
59907;SDS011;61804;54.926;73.496;2024-01-15T10:59:33;14.80;;;7.75;;
59907;SDS011;61804;54.926;73.496;2024-01-15T11:02:01;7.90;;;3.88;;
59907;SDS011;61804;54.926;73.496;2024-01-15T11:04:31;9.40;;;5.72;;
59907;SDS011;61804;54.926;73.496;2024-01-15T11:07:10;6.97;;;5.45;;
59907;SDS011;61804;54.926;73.496;2024-01-15T11:09:39;11.05;;;4.95;;
59907;SDS011;61804;54.926;73.496;2024-01-15T11:12:08;4.88;;;3.78;;
59907;SDS011;61804;54.926;73.496;2024-01-15T11:14:47;5.28;;;3.00;;
59907;SDS011;61804;54.926;73.496;2024-01-15T11:17:15;9.20;;;5.80;;
59907;SDS011;61804;54.926;73.496;2024-01-15T11:19:46;17.98;;;6.88;;
59907;SDS011;61804;54.926;73.496;2024-01-15T11:25:02;7.10;;;5.97;;
59907;SDS011;61804;54.926;73.496;2024-01-15T11:27:40;9.27;;;6.93;;
59907;SDS011;61804;54.926;73.496;2024-01-15T11:30:11;9.32;;;7.00;;
59907;SDS011;61804;54.926;73.496;2024-01-15T11:32:39;9.02;;;6.07;;
59907;SDS011;61804;54.926;73.496;2024-01-15T11:35:10;11.25;;;8.35;;
59907;SDS011;61804;54.926;73.496;2024-01-15T11:43:06;8.48;;;2.83;;
59907;SDS011;61804;54.926;73.496;2024-01-15T11:45:35;11.52;;;6.53;;
59907;SDS011;61804;54.926;73.496;2024-01-15T11:50:32;26.48;;;11.50;;
59907;SDS011;61804;54.926;73.496;2024-01-15T11:53:01;11.32;;;7.78;;
59907;SDS011;61804;54.926;73.496;2024-01-15T11:55:36;16.70;;;8.73;;
59907;SDS011;61804;54.926;73.496;2024-01-15T12:00:38;19.17;;;10.43;;
59907;SDS011;61804;54.926;73.496;2024-01-15T12:03:06;34.25;;;17.35;;
59907;SDS011;61804;54.926;73.496;2024-01-15T12:05:36;32.83;;;18.67;;
59907;SDS011;61804;54.926;73.496;2024-01-15T12:08:04;30.17;;;17.02;;
59907;SDS011;61804;54.926;73.496;2024-01-15T12:10:40;17.38;;;8.25;;
59907;SDS011;61804;54.926;73.496;2024-01-15T12:13:13;14.75;;;10.65;;
59907;SDS011;61804;54.926;73.496;2024-01-15T12:15:44;11.48;;;7.68;;
59907;SDS011;61804;54.926;73.496;2024-01-15T12:18:13;17.38;;;12.10;;
59907;SDS011;61804;54.926;73.496;2024-01-15T12:21:01;8.20;;;7.45;;
59907;SDS011;61804;54.926;73.496;2024-01-15T12:23:29;7.10;;;6.05;;
59907;SDS011;61804;54.926;73.496;2024-01-15T12:26:14;8.63;;;6.20;;
59907;SDS011;61804;54.926;73.496;2024-01-15T12:29:05;13.57;;;6.32;;
59907;SDS011;61804;54.926;73.496;2024-01-15T12:32:09;5.35;;;3.67;;
59907;SDS011;61804;54.926;73.496;2024-01-15T12:34:37;8.48;;;5.32;;
59907;SDS011;61804;54.926;73.496;2024-01-15T12:37:07;26.98;;;9.35;;
59907;SDS011;61804;54.926;73.496;2024-01-15T12:39:35;21.08;;;15.27;;
59907;SDS011;61804;54.926;73.496;2024-01-15T12:42:03;50.72;;;22.98;;
59907;SDS011;61804;54.926;73.496;2024-01-15T12:44:32;44.42;;;23.02;;
59907;SDS011;61804;54.926;73.496;2024-01-15T12:46:59;37.50;;;24.67;;
59907;SDS011;61804;54.926;73.496;2024-01-15T12:49:26;36.58;;;18.00;;
59907;SDS011;61804;54.926;73.496;2024-01-15T12:51:56;48.80;;;23.15;;
59907;SDS011;61804;54.926;73.496;2024-01-15T12:54:23;89.13;;;37.17;;
59907;SDS011;61804;54.926;73.496;2024-01-15T12:56:52;57.58;;;32.08;;
59907;SDS011;61804;54.926;73.496;2024-01-15T12:59:19;65.70;;;29.38;;
59907;SDS011;61804;54.926;73.496;2024-01-15T13:01:47;45.42;;;28.70;;
59907;SDS011;61804;54.926;73.496;2024-01-15T13:04:25;33.08;;;16.20;;
59907;SDS011;61804;54.926;73.496;2024-01-15T13:06:53;14.35;;;10.20;;
59907;SDS011;61804;54.926;73.496;2024-01-15T13:09:41;7.80;;;6.45;;
59907;SDS011;61804;54.926;73.496;2024-01-15T13:12:28;8.25;;;6.40;;
59907;SDS011;61804;54.926;73.496;2024-01-15T13:14:58;11.32;;;6.75;;
59907;SDS011;61804;54.926;73.496;2024-01-15T13:17:25;11.02;;;6.43;;
59907;SDS011;61804;54.926;73.496;2024-01-15T13:19:52;16.52;;;12.18;;
59907;SDS011;61804;54.926;73.496;2024-01-15T13:22:21;16.35;;;11.43;;
59907;SDS011;61804;54.926;73.496;2024-01-15T13:24:48;25.38;;;13.20;;
59907;SDS011;61804;54.926;73.496;2024-01-15T13:27:20;21.08;;;13.13;;
59907;SDS011;61804;54.926;73.496;2024-01-15T13:29:50;30.35;;;18.27;;
59907;SDS011;61804;54.926;73.496;2024-01-15T13:32:19;21.52;;;11.35;;
59907;SDS011;61804;54.926;73.496;2024-01-15T13:35:10;35.63;;;14.75;;
59907;SDS011;61804;54.926;73.496;2024-01-15T13:37:40;14.60;;;9.57;;
59907;SDS011;61804;54.926;73.496;2024-01-15T13:40:10;22.08;;;12.30;;
59907;SDS011;61804;54.926;73.496;2024-01-15T13:42:43;8.90;;;5.25;;
59907;SDS011;61804;54.926;73.496;2024-01-15T13:45:13;6.93;;;5.28;;
59907;SDS011;61804;54.926;73.496;2024-01-15T13:47:43;13.80;;;6.95;;
59907;SDS011;61804;54.926;73.496;2024-01-15T13:50:11;10.40;;;6.32;;
59907;SDS011;61804;54.926;73.496;2024-01-15T13:52:40;3.40;;;2.75;;
59907;SDS011;61804;54.926;73.496;2024-01-15T13:55:08;9.82;;;5.45;;
59907;SDS011;61804;54.926;73.496;2024-01-15T13:57:35;16.27;;;5.95;;
59907;SDS011;61804;54.926;73.496;2024-01-15T14:00:04;10.15;;;7.05;;
59907;SDS011;61804;54.926;73.496;2024-01-15T14:02:56;3.97;;;3.63;;
59907;SDS011;61804;54.926;73.496;2024-01-15T14:05:33;8.77;;;5.53;;
59907;SDS011;61804;54.926;73.496;2024-01-15T14:08:01;4.20;;;2.90;;
59907;SDS011;61804;54.926;73.496;2024-01-15T14:10:30;3.75;;;3.38;;
59907;SDS011;61804;54.926;73.496;2024-01-15T14:12:58;5.90;;;3.80;;
59907;SDS011;61804;54.926;73.496;2024-01-15T14:15:25;4.25;;;2.70;;
59907;SDS011;61804;54.926;73.496;2024-01-15T14:17:54;4.07;;;3.05;;
59907;SDS011;61804;54.926;73.496;2024-01-15T14:20:21;6.47;;;3.75;;
59907;SDS011;61804;54.926;73.496;2024-01-15T14:22:49;3.58;;;2.75;;
59907;SDS011;61804;54.926;73.496;2024-01-15T14:25:16;9.13;;;5.05;;
59907;SDS011;61804;54.926;73.496;2024-01-15T14:27:43;3.38;;;3.08;;
59907;SDS011;61804;54.926;73.496;2024-01-15T14:30:11;3.20;;;2.17;;
59907;SDS011;61804;54.926;73.496;2024-01-15T14:32:39;5.10;;;3.45;;
59907;SDS011;61804;54.926;73.496;2024-01-15T14:35:08;11.23;;;7.60;;
59907;SDS011;61804;54.926;73.496;2024-01-15T14:37:40;12.48;;;4.57;;
59907;SDS011;61804;54.926;73.496;2024-01-15T14:40:08;4.90;;;2.95;;
59907;SDS011;61804;54.926;73.496;2024-01-15T14:42:38;4.50;;;3.25;;
59907;SDS011;61804;54.926;73.496;2024-01-15T14:45:09;4.50;;;3.47;;
59907;SDS011;61804;54.926;73.496;2024-01-15T14:47:39;6.10;;;3.33;;
59907;SDS011;61804;54.926;73.496;2024-01-15T14:50:07;14.45;;;8.27;;
59907;SDS011;61804;54.926;73.496;2024-01-15T14:52:36;10.32;;;5.93;;